sensor_id;sensor_type;location;lat;lon;timestamp;P1;durP1;ratioP1;P2;durP2;ratioP2
27863;SDS011;15980;51.092;13.916;2023-05-27T00:02:55;17.65;;;5.47;;
27863;SDS011;15980;51.092;13.916;2023-05-27T00:12:55;19.23;;;4.43;;
27863;SDS011;15980;51.092;13.916;2023-05-27T00:22:56;17.65;;;3.70;;
27863;SDS011;15980;51.092;13.916;2023-05-27T00:32:56;17.63;;;4.25;;
27863;SDS011;15980;51.092;13.916;2023-05-27T00:42:56;22.77;;;4.72;;
27863;SDS011;15980;51.092;13.916;2023-05-27T00:52:57;21.25;;;4.65;;
27863;SDS011;15980;51.092;13.916;2023-05-27T01:02:57;18.85;;;5.38;;
27863;SDS011;15980;51.092;13.916;2023-05-27T01:13:01;11.15;;;3.90;;
27863;SDS011;15980;51.092;13.916;2023-05-27T01:23:08;21.05;;;5.10;;
27863;SDS011;15980;51.092;13.916;2023-05-27T01:33:19;21.38;;;4.78;;
27863;SDS011;15980;51.092;13.916;2023-05-27T01:43:23;20.05;;;4.78;;
27863;SDS011;15980;51.092;13.916;2023-05-27T01:53:24;14.55;;;4.50;;
27863;SDS011;15980;51.092;13.916;2023-05-27T02:03:24;20.25;;;4.60;;
27863;SDS011;15980;51.092;13.916;2023-05-27T02:13:24;17.17;;;3.85;;
27863;SDS011;15980;51.092;13.916;2023-05-27T02:23:25;23.88;;;3.70;;
27863;SDS011;15980;51.092;13.916;2023-05-27T02:33:25;15.50;;;4.25;;
27863;SDS011;15980;51.092;13.916;2023-05-27T02:43:25;15.60;;;4.53;;
27863;SDS011;15980;51.092;13.916;2023-05-27T02:53:26;17.27;;;4.85;;
27863;SDS011;15980;51.092;13.916;2023-05-27T03:03:26;17.50;;;5.10;;
27863;SDS011;15980;51.092;13.916;2023-05-27T03:13:26;17.50;;;4.82;;
27863;SDS011;15980;51.092;13.916;2023-05-27T03:23:27;14.77;;;4.43;;
27863;SDS011;15980;51.092;13.916;2023-05-27T03:33:27;13.70;;;4.20;;
27863;SDS011;15980;51.092;13.916;2023-05-27T03:43:27;16.55;;;3.65;;
27863;SDS011;15980;51.092;13.916;2023-05-27T03:53:28;12.90;;;4.45;;
27863;SDS011;15980;51.092;13.916;2023-05-27T04:03:28;20.98;;;4.47;;
27863;SDS011;15980;51.092;13.916;2023-05-27T04:13:28;16.45;;;4.38;;
27863;SDS011;15980;51.092;13.916;2023-05-27T04:23:28;17.08;;;4.38;;
27863;SDS011;15980;51.092;13.916;2023-05-27T04:33:29;12.70;;;3.80;;
27863;SDS011;15980;51.092;13.916;2023-05-27T04:43:29;20.63;;;7.10;;
27863;SDS011;15980;51.092;13.916;2023-05-27T04:53:30;17.48;;;4.68;;
27863;SDS011;15980;51.092;13.916;2023-05-27T05:03:30;16.98;;;4.18;;
27863;SDS011;15980;51.092;13.916;2023-05-27T05:13:30;14.63;;;4.43;;
27863;SDS011;15980;51.092;13.916;2023-05-27T05:23:31;17.65;;;4.50;;
27863;SDS011;15980;51.092;13.916;2023-05-27T05:33:31;24.73;;;4.53;;
27863;SDS011;15980;51.092;13.916;2023-05-27T05:43:31;17.70;;;4.60;;
27863;SDS011;15980;51.092;13.916;2023-05-27T05:53:31;22.13;;;5.03;;
27863;SDS011;15980;51.092;13.916;2023-05-27T06:03:32;21.90;;;4.03;;
27863;SDS011;15980;51.092;13.916;2023-05-27T06:13:32;15.32;;;4.32;;
27863;SDS011;15980;51.092;13.916;2023-05-27T06:23:32;15.40;;;4.00;;
27863;SDS011;15980;51.092;13.916;2023-05-27T06:33:32;19.25;;;5.38;;
27863;SDS011;15980;51.092;13.916;2023-05-27T06:43:33;18.40;;;3.55;;
27863;SDS011;15980;51.092;13.916;2023-05-27T06:53:33;18.25;;;3.67;;
27863;SDS011;15980;51.092;13.916;2023-05-27T07:03:33;13.48;;;3.75;;
27863;SDS011;15980;51.092;13.916;2023-05-27T07:13:34;16.55;;;3.75;;
27863;SDS011;15980;51.092;13.916;2023-05-27T07:23:34;14.35;;;2.72;;
27863;SDS011;15980;51.092;13.916;2023-05-27T07:33:34;13.27;;;3.42;;
27863;SDS011;15980;51.092;13.916;2023-05-27T07:43:35;14.73;;;3.15;;
27863;SDS011;15980;51.092;13.916;2023-05-27T07:53:36;21.48;;;3.40;;
27863;SDS011;15980;51.092;13.916;2023-05-27T08:03:36;12.55;;;2.40;;
27863;SDS011;15980;51.092;13.916;2023-05-27T08:13:36;11.93;;;3.03;;
27863;SDS011;15980;51.092;13.916;2023-05-27T08:23:37;16.63;;;3.55;;
27863;SDS011;15980;51.092;13.916;2023-05-27T08:33:37;17.25;;;3.90;;
27863;SDS011;15980;51.092;13.916;2023-05-27T08:43:37;14.25;;;2.80;;
27863;SDS011;15980;51.092;13.916;2023-05-27T08:53:37;12.75;;;2.92;;
27863;SDS011;15980;51.092;13.916;2023-05-27T09:03:38;17.92;;;4.70;;
27863;SDS011;15980;51.092;13.916;2023-05-27T09:13:38;18.13;;;2.78;;
27863;SDS011;15980;51.092;13.916;2023-05-27T09:23:42;13.43;;;3.33;;
27863;SDS011;15980;51.092;13.916;2023-05-27T09:33:42;12.13;;;3.42;;
27863;SDS011;15980;51.092;13.916;2023-05-27T09:43:43;16.10;;;3.42;;
27863;SDS011;15980;51.092;13.916;2023-05-27T09:53:54;13.48;;;3.65;;
27863;SDS011;15980;51.092;13.916;2023-05-27T10:03:55;11.38;;;3.47;;
27863;SDS011;15980;51.092;13.916;2023-05-27T10:13:55;11.23;;;3.22;;
27863;SDS011;15980;51.092;13.916;2023-05-27T10:23:59;10.05;;;3.00;;
27863;SDS011;15980;51.092;13.916;2023-05-27T10:34:02;10.10;;;3.13;;
27863;SDS011;15980;51.092;13.916;2023-05-27T10:44:04;10.55;;;3.15;;
27863;SDS011;15980;51.092;13.916;2023-05-27T10:54:04;11.70;;;3.72;;
27863;SDS011;15980;51.092;13.916;2023-05-27T11:04:05;8.98;;;3.22;;
27863;SDS011;15980;51.092;13.916;2023-05-27T11:14:06;11.07;;;2.95;;
27863;SDS011;15980;51.092;13.916;2023-05-27T11:24:13;10.15;;;2.60;;
27863;SDS011;15980;51.092;13.916;2023-05-27T11:34:15;16.95;;;3.88;;
27863;SDS011;15980;51.092;13.916;2023-05-27T11:44:17;10.07;;;2.93;;
27863;SDS011;15980;51.092;13.916;2023-05-27T11:54:19;8.07;;;2.27;;
27863;SDS011;15980;51.092;13.916;2023-05-27T12:04:21;8.20;;;2.63;;
27863;SDS011;15980;51.092;13.916;2023-05-27T12:14:22;6.20;;;2.33;;
27863;SDS011;15980;51.092;13.916;2023-05-27T12:24:22;12.30;;;2.38;;
27863;SDS011;15980;51.092;13.916;2023-05-27T12:34:22;8.80;;;2.75;;
27863;SDS011;15980;51.092;13.916;2023-05-27T12:44:22;6.07;;;2.25;;
27863;SDS011;15980;51.092;13.916;2023-05-27T12:54:23;9.25;;;3.03;;
27863;SDS011;15980;51.092;13.916;2023-05-27T13:04:23;7.28;;;2.58;;
27863;SDS011;15980;51.092;13.916;2023-05-27T13:14:24;7.03;;;2.30;;
27863;SDS011;15980;51.092;13.916;2023-05-27T13:24:25;8.68;;;2.50;;
27863;SDS011;15980;51.092;13.916;2023-05-27T13:34:25;10.13;;;3.10;;
27863;SDS011;15980;51.092;13.916;2023-05-27T13:44:27;9.63;;;3.27;;
27863;SDS011;15980;51.092;13.916;2023-05-27T13:54:27;7.70;;;2.80;;
27863;SDS011;15980;51.092;13.916;2023-05-27T14:04:27;12.27;;;2.90;;
27863;SDS011;15980;51.092;13.916;2023-05-27T14:14:28;6.85;;;2.90;;
27863;SDS011;15980;51.092;13.916;2023-05-27T14:24:28;11.00;;;3.28;;
27863;SDS011;15980;51.092;13.916;2023-05-27T14:34:28;7.90;;;2.67;;
27863;SDS011;15980;51.092;13.916;2023-05-27T14:44:29;8.98;;;3.17;;
27863;SDS011;15980;51.092;13.916;2023-05-27T14:54:32;11.82;;;3.17;;
27863;SDS011;15980;51.092;13.916;2023-05-27T15:04:32;6.68;;;2.80;;
27863;SDS011;15980;51.092;13.916;2023-05-27T15:14:32;8.90;;;3.20;;
27863;SDS011;15980;51.092;13.916;2023-05-27T15:24:33;9.07;;;3.40;;
27863;SDS011;15980;51.092;13.916;2023-05-27T15:34:34;7.07;;;3.08;;
27863;SDS011;15980;51.092;13.916;2023-05-27T15:44:34;5.63;;;2.75;;
27863;SDS011;15980;51.092;13.916;2023-05-27T15:54:34;9.77;;;2.97;;
27863;SDS011;15980;51.092;13.916;2023-05-27T16:04:34;9.93;;;3.28;;
27863;SDS011;15980;51.092;13.916;2023-05-27T16:14:35;11.07;;;3.40;;
27863;SDS011;15980;51.092;13.916;2023-05-27T16:24:35;9.07;;;3.38;;
27863;SDS011;15980;51.092;13.916;2023-05-27T16:34:35;10.35;;;3.65;;
27863;SDS011;15980;51.092;13.916;2023-05-27T16:44:35;10.85;;;3.20;;
27863;SDS011;15980;51.092;13.916;2023-05-27T16:54:36;11.80;;;3.83;;
27863;SDS011;15980;51.092;13.916;2023-05-27T17:04:36;8.52;;;3.17;;
27863;SDS011;15980;51.092;13.916;2023-05-27T17:14:36;6.40;;;2.80;;
27863;SDS011;15980;51.092;13.916;2023-05-27T17:24:37;10.60;;;3.65;;
27863;SDS011;15980;51.092;13.916;2023-05-27T17:34:37;9.10;;;3.45;;
27863;SDS011;15980;51.092;13.916;2023-05-27T17:44:38;16.52;;;4.32;;
27863;SDS011;15980;51.092;13.916;2023-05-27T17:54:38;9.50;;;3.30;;
27863;SDS011;15980;51.092;13.916;2023-05-27T18:04:38;9.45;;;3.67;;
27863;SDS011;15980;51.092;13.916;2023-05-27T18:14:38;16.17;;;4.40;;
27863;SDS011;15980;51.092;13.916;2023-05-27T18:24:39;11.63;;;3.08;;
27863;SDS011;15980;51.092;13.916;2023-05-27T18:34:39;14.35;;;4.53;;
27863;SDS011;15980;51.092;13.916;2023-05-27T18:44:39;10.63;;;4.10;;
27863;SDS011;15980;51.092;13.916;2023-05-27T18:54:40;17.83;;;9.57;;
27863;SDS011;15980;51.092;13.916;2023-05-27T19:04:40;34.30;;;20.65;;
27863;SDS011;15980;51.092;13.916;2023-05-27T19:14:40;23.02;;;11.80;;
27863;SDS011;15980;51.092;13.916;2023-05-27T19:24:41;25.65;;;15.98;;
27863;SDS011;15980;51.092;13.916;2023-05-27T19:34:41;20.10;;;8.68;;
27863;SDS011;15980;51.092;13.916;2023-05-27T19:44:41;14.80;;;7.35;;
27863;SDS011;15980;51.092;13.916;2023-05-27T19:54:42;24.35;;;8.23;;
27863;SDS011;15980;51.092;13.916;2023-05-27T20:04:42;20.00;;;7.78;;
27863;SDS011;15980;51.092;13.916;2023-05-27T20:14:43;31.10;;;13.60;;
27863;SDS011;15980;51.092;13.916;2023-05-27T20:24:45;17.35;;;8.93;;
27863;SDS011;15980;51.092;13.916;2023-05-27T20:34:46;24.25;;;8.85;;
27863;SDS011;15980;51.092;13.916;2023-05-27T20:44:46;27.90;;;12.60;;
27863;SDS011;15980;51.092;13.916;2023-05-27T20:54:47;25.65;;;12.02;;
27863;SDS011;15980;51.092;13.916;2023-05-27T21:04:47;19.02;;;7.85;;
27863;SDS011;15980;51.092;13.916;2023-05-27T21:14:47;18.77;;;7.03;;
27863;SDS011;15980;51.092;13.916;2023-05-27T21:24:48;19.70;;;6.55;;
27863;SDS011;15980;51.092;13.916;2023-05-27T21:34:48;18.80;;;8.82;;
27863;SDS011;15980;51.092;13.916;2023-05-27T21:44:49;19.30;;;8.23;;
27863;SDS011;15980;51.092;13.916;2023-05-27T21:54:49;18.50;;;7.75;;
27863;SDS011;15980;51.092;13.916;2023-05-27T22:04:50;18.23;;;6.50;;
27863;SDS011;15980;51.092;13.916;2023-05-27T22:14:50;16.48;;;6.07;;
27863;SDS011;15980;51.092;13.916;2023-05-27T22:24:50;18.10;;;6.43;;
27863;SDS011;15980;51.092;13.916;2023-05-27T22:34:50;16.95;;;6.20;;
27863;SDS011;15980;51.092;13.916;2023-05-27T22:44:51;16.20;;;5.28;;
27863;SDS011;15980;51.092;13.916;2023-05-27T22:54:51;10.77;;;4.63;;
27863;SDS011;15980;51.092;13.916;2023-05-27T23:04:51;14.90;;;4.40;;
27863;SDS011;15980;51.092;13.916;2023-05-27T23:14:52;10.35;;;5.03;;
27863;SDS011;15980;51.092;13.916;2023-05-27T23:24:52;14.05;;;6.13;;
27863;SDS011;15980;51.092;13.916;2023-05-27T23:34:52;14.65;;;5.43;;
27863;SDS011;15980;51.092;13.916;2023-05-27T23:44:52;15.95;;;5.55;;
27863;SDS011;15980;51.092;13.916;2023-05-27T23:54:53;14.63;;;6.25;;
